sensor_id;sensor_type;location;lat;lon;timestamp;pressure;altitude;pressure_sealevel;temperature;humidity
75312;BME280;63906;55.686;37.532;2023-10-19T00:00:37;98588.06;;;5.65;100.00
75312;BME280;63906;55.686;37.532;2023-10-19T00:05:45;98581.38;;;5.63;100.00
75312;BME280;63906;55.686;37.532;2023-10-19T00:10:53;98563.28;;;5.61;100.00
75312;BME280;63906;55.686;37.532;2023-10-19T00:16:08;98554.34;;;5.34;100.00
75312;BME280;63906;55.686;37.532;2023-10-19T00:21:16;98580.66;;;5.69;100.00
75312;BME280;63906;55.686;37.532;2023-10-19T00:26:27;98586.66;;;5.70;100.00
75312;BME280;63906;55.686;37.532;2023-10-19T00:31:30;98567.78;;;5.67;100.00
75312;BME280;63906;55.686;37.532;2023-10-19T00:36:39;98592.41;;;5.80;100.00
75312;BME280;63906;55.686;37.532;2023-10-19T00:41:40;98529.91;;;5.57;100.00
75312;BME280;63906;55.686;37.532;2023-10-19T00:46:41;98582.03;;;5.86;100.00
75312;BME280;63906;55.686;37.532;2023-10-19T00:51:44;98534.69;;;5.53;100.00
75312;BME280;63906;55.686;37.532;2023-10-19T00:56:54;98577.72;;;5.93;100.00
75312;BME280;63906;55.686;37.532;2023-10-19T01:01:59;98581.34;;;5.92;100.00
75312;BME280;63906;55.686;37.532;2023-10-19T01:07:18;98542.03;;;5.64;100.00
75312;BME280;63906;55.686;37.532;2023-10-19T01:12:27;98584.19;;;5.98;100.00
75312;BME280;63906;55.686;37.532;2023-10-19T01:17:31;98541.63;;;5.82;100.00
75312;BME280;63906;55.686;37.532;2023-10-19T01:22:31;98577.19;;;5.98;100.00
75312;BME280;63906;55.686;37.532;2023-10-19T01:27:32;98571.22;;;5.89;100.00
75312;BME280;63906;55.686;37.532;2023-10-19T01:32:32;98563.56;;;5.88;100.00
75312;BME280;63906;55.686;37.532;2023-10-19T01:37:33;98564.84;;;5.77;100.00
75312;BME280;63906;55.686;37.532;2023-10-19T01:42:38;98562.63;;;5.74;100.00
75312;BME280;63906;55.686;37.532;2023-10-19T01:47:38;98558.94;;;5.68;100.00
75312;BME280;63906;55.686;37.532;2023-10-19T01:52:40;98561.81;;;5.74;100.00
75312;BME280;63906;55.686;37.532;2023-10-19T01:57:41;98547.19;;;5.58;100.00
75312;BME280;63906;55.686;37.532;2023-10-19T02:02:41;98506.31;;;5.29;100.00
75312;BME280;63906;55.686;37.532;2023-10-19T02:07:42;98567.56;;;5.84;100.00
75312;BME280;63906;55.686;37.532;2023-10-19T02:12:43;98559.47;;;5.79;100.00
75312;BME280;63906;55.686;37.532;2023-10-19T02:17:46;98560.75;;;5.89;100.00
75312;BME280;63906;55.686;37.532;2023-10-19T02:22:47;98567.19;;;5.87;100.00
75312;BME280;63906;55.686;37.532;2023-10-19T02:27:47;98567.66;;;6.12;100.00
75312;BME280;63906;55.686;37.532;2023-10-19T02:32:48;98553.72;;;6.05;100.00
75312;BME280;63906;55.686;37.532;2023-10-19T02:37:49;98562.50;;;5.97;100.00
75312;BME280;63906;55.686;37.532;2023-10-19T02:42:49;98562.44;;;6.12;100.00
75312;BME280;63906;55.686;37.532;2023-10-19T02:47:53;98563.31;;;5.98;100.00
75312;BME280;63906;55.686;37.532;2023-10-19T02:52:54;98537.78;;;5.78;100.00
75312;BME280;63906;55.686;37.532;2023-10-19T02:57:54;98561.31;;;6.00;100.00
75312;BME280;63906;55.686;37.532;2023-10-19T03:02:55;98571.19;;;6.04;100.00
75312;BME280;63906;55.686;37.532;2023-10-19T03:07:55;98555.72;;;6.03;100.00
75312;BME280;63906;55.686;37.532;2023-10-19T03:12:56;98525.63;;;5.71;100.00
75312;BME280;63906;55.686;37.532;2023-10-19T03:17:57;98533.69;;;5.90;100.00
75312;BME280;63906;55.686;37.532;2023-10-19T03:22:58;98555.53;;;6.04;100.00
75312;BME280;63906;55.686;37.532;2023-10-19T03:28:01;98551.47;;;6.02;100.00
75312;BME280;63906;55.686;37.532;2023-10-19T03:33:08;98569.06;;;6.14;100.00
75312;BME280;63906;55.686;37.532;2023-10-19T03:38:09;98530.56;;;5.80;100.00
75312;BME280;63906;55.686;37.532;2023-10-19T03:43:18;98560.16;;;5.87;100.00
75312;BME280;63906;55.686;37.532;2023-10-19T03:48:22;98567.78;;;6.04;100.00
75312;BME280;63906;55.686;37.532;2023-10-19T03:53:34;98561.38;;;6.06;100.00
75312;BME280;63906;55.686;37.532;2023-10-19T03:58:37;98556.88;;;6.00;100.00
75312;BME280;63906;55.686;37.532;2023-10-19T04:03:38;98563.31;;;5.98;100.00
75312;BME280;63906;55.686;37.532;2023-10-19T04:08:39;98566.41;;;6.08;100.00
75312;BME280;63906;55.686;37.532;2023-10-19T04:13:39;98562.22;;;6.13;100.00
75312;BME280;63906;55.686;37.532;2023-10-19T04:18:40;98524.50;;;5.94;100.00
75312;BME280;63906;55.686;37.532;2023-10-19T04:23:44;98571.13;;;6.19;100.00
75312;BME280;63906;55.686;37.532;2023-10-19T04:28:46;98570.94;;;6.20;100.00
75312;BME280;63906;55.686;37.532;2023-10-19T04:33:50;98574.75;;;6.18;100.00
75312;BME280;63906;55.686;37.532;2023-10-19T04:38:50;98573.19;;;6.24;100.00
75312;BME280;63906;55.686;37.532;2023-10-19T04:43:51;98579.56;;;6.21;100.00
75312;BME280;63906;55.686;37.532;2023-10-19T04:48:52;98567.72;;;6.18;100.00
75312;BME280;63906;55.686;37.532;2023-10-19T04:53:52;98567.97;;;6.24;100.00
75312;BME280;63906;55.686;37.532;2023-10-19T04:58:53;98576.97;;;6.42;100.00
75312;BME280;63906;55.686;37.532;2023-10-19T05:03:53;98580.53;;;6.35;100.00
75312;BME280;63906;55.686;37.532;2023-10-19T05:08:54;98553.44;;;6.21;100.00
75312;BME280;63906;55.686;37.532;2023-10-19T05:13:55;98567.16;;;6.23;100.00
75312;BME280;63906;55.686;37.532;2023-10-19T05:18:55;98581.81;;;6.45;100.00
75312;BME280;63906;55.686;37.532;2023-10-19T05:23:56;98596.50;;;6.46;100.00
75312;BME280;63906;55.686;37.532;2023-10-19T05:28:57;98569.31;;;6.41;100.00
75312;BME280;63906;55.686;37.532;2023-10-19T05:33:57;98593.00;;;6.39;100.00
75312;BME280;63906;55.686;37.532;2023-10-19T05:38:58;98539.53;;;6.35;100.00
75312;BME280;63906;55.686;37.532;2023-10-19T05:43:58;98584.63;;;6.72;100.00
75312;BME280;63906;55.686;37.532;2023-10-19T05:48:59;98556.97;;;6.56;100.00
75312;BME280;63906;55.686;37.532;2023-10-19T05:54:01;98589.91;;;6.79;100.00
75312;BME280;63906;55.686;37.532;2023-10-19T05:59:03;98548.81;;;6.44;100.00
75312;BME280;63906;55.686;37.532;2023-10-19T06:04:05;98600.19;;;6.80;100.00
75312;BME280;63906;55.686;37.532;2023-10-19T06:09:06;98597.31;;;6.75;100.00
75312;BME280;63906;55.686;37.532;2023-10-19T06:14:09;98591.66;;;6.99;100.00
75312;BME280;63906;55.686;37.532;2023-10-19T06:19:10;98599.00;;;7.17;100.00
75312;BME280;63906;55.686;37.532;2023-10-19T06:24:10;98595.16;;;7.13;100.00
75312;BME280;63906;55.686;37.532;2023-10-19T06:29:14;98605.88;;;7.25;100.00
75312;BME280;63906;55.686;37.532;2023-10-19T06:34:15;98572.16;;;7.02;100.00
75312;BME280;63906;55.686;37.532;2023-10-19T06:39:17;98568.28;;;6.91;100.00
75312;BME280;63906;55.686;37.532;2023-10-19T06:44:18;98599.50;;;6.99;100.00
75312;BME280;63906;55.686;37.532;2023-10-19T06:49:18;98605.56;;;7.07;100.00
75312;BME280;63906;55.686;37.532;2023-10-19T06:54:19;98598.72;;;7.06;100.00
75312;BME280;63906;55.686;37.532;2023-10-19T06:59:20;98589.72;;;7.08;100.00
75312;BME280;63906;55.686;37.532;2023-10-19T07:04:21;98585.28;;;6.81;100.00
75312;BME280;63906;55.686;37.532;2023-10-19T07:09:22;98595.50;;;7.04;100.00
75312;BME280;63906;55.686;37.532;2023-10-19T07:14:23;98603.84;;;7.20;100.00
75312;BME280;63906;55.686;37.532;2023-10-19T07:19:24;98608.16;;;7.00;100.00
75312;BME280;63906;55.686;37.532;2023-10-19T07:24:27;98610.38;;;6.96;100.00
75312;BME280;63906;55.686;37.532;2023-10-19T07:29:29;98604.38;;;7.03;100.00
75312;BME280;63906;55.686;37.532;2023-10-19T07:34:31;98623.09;;;7.06;100.00
75312;BME280;63906;55.686;37.532;2023-10-19T07:39:33;98625.97;;;6.83;100.00
75312;BME280;63906;55.686;37.532;2023-10-19T07:44:35;98620.94;;;6.88;100.00
75312;BME280;63906;55.686;37.532;2023-10-19T07:49:36;98621.59;;;6.90;100.00
75312;BME280;63906;55.686;37.532;2023-10-19T07:54:39;98596.69;;;7.01;100.00
75312;BME280;63906;55.686;37.532;2023-10-19T07:59:40;98623.50;;;7.44;100.00
75312;BME280;63906;55.686;37.532;2023-10-19T08:04:41;98626.19;;;7.57;100.00
75312;BME280;63906;55.686;37.532;2023-10-19T08:09:42;98625.91;;;7.39;100.00
75312;BME280;63906;55.686;37.532;2023-10-19T08:14:42;98631.09;;;7.33;100.00
75312;BME280;63906;55.686;37.532;2023-10-19T08:19:43;98625.63;;;7.21;100.00
75312;BME280;63906;55.686;37.532;2023-10-19T08:24:43;98632.59;;;7.14;100.00
75312;BME280;63906;55.686;37.532;2023-10-19T08:29:44;98577.88;;;6.84;100.00
75312;BME280;63906;55.686;37.532;2023-10-19T08:34:46;98646.13;;;7.17;100.00
75312;BME280;63906;55.686;37.532;2023-10-19T08:39:47;98618.97;;;6.90;100.00
75312;BME280;63906;55.686;37.532;2023-10-19T08:44:48;98648.41;;;6.99;100.00
75312;BME280;63906;55.686;37.532;2023-10-19T08:49:48;98631.66;;;6.93;100.00
75312;BME280;63906;55.686;37.532;2023-10-19T08:54:49;98633.34;;;7.08;100.00
75312;BME280;63906;55.686;37.532;2023-10-19T08:59:50;98640.22;;;7.09;100.00
75312;BME280;63906;55.686;37.532;2023-10-19T09:04:50;98644.69;;;7.15;100.00
75312;BME280;63906;55.686;37.532;2023-10-19T09:09:50;98657.38;;;7.18;100.00
75312;BME280;63906;55.686;37.532;2023-10-19T09:14:51;98656.75;;;7.09;100.00
75312;BME280;63906;55.686;37.532;2023-10-19T09:19:51;98649.31;;;6.85;100.00
75312;BME280;63906;55.686;37.532;2023-10-19T09:24:53;98663.72;;;6.74;100.00
75312;BME280;63906;55.686;37.532;2023-10-19T09:29:54;98666.00;;;7.12;100.00
75312;BME280;63906;55.686;37.532;2023-10-19T09:34:56;98661.72;;;7.39;100.00
75312;BME280;63906;55.686;37.532;2023-10-19T09:39:57;98639.19;;;7.38;100.00
75312;BME280;63906;55.686;37.532;2023-10-19T09:44:59;98658.00;;;7.54;100.00
75312;BME280;63906;55.686;37.532;2023-10-19T09:50:06;98667.03;;;7.45;100.00
75312;BME280;63906;55.686;37.532;2023-10-19T09:55:34;98673.03;;;7.39;100.00
75312;BME280;63906;55.686;37.532;2023-10-19T10:00:38;98654.44;;;7.27;100.00
75312;BME280;63906;55.686;37.532;2023-10-19T10:10:46;98654.91;;;7.44;100.00
75312;BME280;63906;55.686;37.532;2023-10-19T10:15:48;98670.69;;;7.57;100.00
75312;BME280;63906;55.686;37.532;2023-10-19T10:21:04;98678.22;;;8.22;100.00
75312;BME280;63906;55.686;37.532;2023-10-19T10:26:05;98660.59;;;8.70;100.00
75312;BME280;63906;55.686;37.532;2023-10-19T10:31:20;98617.19;;;8.68;100.00
75312;BME280;63906;55.686;37.532;2023-10-19T10:36:21;98652.28;;;8.80;100.00
75312;BME280;63906;55.686;37.532;2023-10-19T10:41:23;98661.25;;;8.18;100.00
75312;BME280;63906;55.686;37.532;2023-10-19T10:46:32;98626.69;;;7.81;100.00
75312;BME280;63906;55.686;37.532;2023-10-19T10:51:32;98669.44;;;7.88;100.00
75312;BME280;63906;55.686;37.532;2023-10-19T10:56:40;98652.59;;;7.63;100.00
75312;BME280;63906;55.686;37.532;2023-10-19T11:01:41;98664.22;;;7.47;100.00
75312;BME280;63906;55.686;37.532;2023-10-19T11:06:50;98637.22;;;7.12;100.00
75312;BME280;63906;55.686;37.532;2023-10-19T11:11:51;98663.78;;;7.09;100.00
75312;BME280;63906;55.686;37.532;2023-10-19T11:16:54;98684.06;;;7.07;100.00
75312;BME280;63906;55.686;37.532;2023-10-19T11:21:55;98664.63;;;6.88;100.00
75312;BME280;63906;55.686;37.532;2023-10-19T11:26:56;98672.50;;;6.94;100.00
75312;BME280;63906;55.686;37.532;2023-10-19T11:31:57;98671.91;;;6.92;100.00
75312;BME280;63906;55.686;37.532;2023-10-19T11:36:59;98664.16;;;6.78;100.00
75312;BME280;63906;55.686;37.532;2023-10-19T11:41:59;98669.69;;;6.68;100.00
75312;BME280;63906;55.686;37.532;2023-10-19T11:47:00;98639.09;;;6.40;100.00
75312;BME280;63906;55.686;37.532;2023-10-19T11:52:05;98669.69;;;6.68;100.00
75312;BME280;63906;55.686;37.532;2023-10-19T11:57:06;98674.97;;;6.74;100.00
75312;BME280;63906;55.686;37.532;2023-10-19T12:02:06;98650.78;;;6.94;100.00
75312;BME280;63906;55.686;37.532;2023-10-19T12:07:07;98667.91;;;7.24;100.00
75312;BME280;63906;55.686;37.532;2023-10-19T12:12:09;98671.88;;;7.48;100.00
75312;BME280;63906;55.686;37.532;2023-10-19T12:17:10;98660.19;;;7.51;100.00
75312;BME280;63906;55.686;37.532;2023-10-19T12:22:11;98674.38;;;7.70;100.00
75312;BME280;63906;55.686;37.532;2023-10-19T12:27:13;98683.13;;;7.83;100.00
75312;BME280;63906;55.686;37.532;2023-10-19T12:32:14;98668.00;;;7.79;100.00
75312;BME280;63906;55.686;37.532;2023-10-19T12:37:14;98672.78;;;7.69;100.00
75312;BME280;63906;55.686;37.532;2023-10-19T12:42:15;98663.00;;;7.49;100.00
75312;BME280;63906;55.686;37.532;2023-10-19T12:47:16;98681.94;;;7.51;100.00
75312;BME280;63906;55.686;37.532;2023-10-19T12:52:17;98679.50;;;7.43;100.00
75312;BME280;63906;55.686;37.532;2023-10-19T12:57:18;98654.41;;;7.21;100.00
75312;BME280;63906;55.686;37.532;2023-10-19T13:02:20;98657.75;;;7.08;100.00
75312;BME280;63906;55.686;37.532;2023-10-19T13:07:20;98689.19;;;7.15;100.00
75312;BME280;63906;55.686;37.532;2023-10-19T13:12:21;98672.41;;;7.03;100.00
75312;BME280;63906;55.686;37.532;2023-10-19T13:17:23;98684.03;;;7.00;100.00
75312;BME280;63906;55.686;37.532;2023-10-19T13:22:25;98671.25;;;6.84;100.00
75312;BME280;63906;55.686;37.532;2023-10-19T13:27:25;98684.25;;;6.77;100.00
75312;BME280;63906;55.686;37.532;2023-10-19T13:32:30;98686.00;;;6.70;100.00
75312;BME280;63906;55.686;37.532;2023-10-19T13:37:32;98687.94;;;6.61;100.00
75312;BME280;63906;55.686;37.532;2023-10-19T13:42:33;98697.66;;;6.67;100.00
75312;BME280;63906;55.686;37.532;2023-10-19T13:47:35;98702.69;;;6.69;100.00
75312;BME280;63906;55.686;37.532;2023-10-19T13:52:35;98697.78;;;6.59;100.00
75312;BME280;63906;55.686;37.532;2023-10-19T13:57:36;98705.78;;;6.58;100.00
75312;BME280;63906;55.686;37.532;2023-10-19T14:02:37;98684.50;;;6.39;100.00
75312;BME280;63906;55.686;37.532;2023-10-19T14:07:37;98699.44;;;6.45;100.00
75312;BME280;63906;55.686;37.532;2023-10-19T14:12:40;98711.22;;;6.56;100.00
75312;BME280;63906;55.686;37.532;2023-10-19T14:17:44;98685.88;;;6.35;100.00
75312;BME280;63906;55.686;37.532;2023-10-19T14:22:49;98703.72;;;6.32;100.00
75312;BME280;63906;55.686;37.532;2023-10-19T14:27:51;98712.38;;;6.32;100.00
75312;BME280;63906;55.686;37.532;2023-10-19T14:32:52;98711.13;;;6.28;100.00
75312;BME280;63906;55.686;37.532;2023-10-19T14:37:55;98720.06;;;6.19;100.00
75312;BME280;63906;55.686;37.532;2023-10-19T14:42:56;98728.72;;;6.19;100.00
75312;BME280;63906;55.686;37.532;2023-10-19T14:47:59;98729.28;;;6.15;100.00
75312;BME280;63906;55.686;37.532;2023-10-19T14:53:03;98727.75;;;6.06;100.00
75312;BME280;63906;55.686;37.532;2023-10-19T14:58:05;98726.69;;;6.00;100.00
75312;BME280;63906;55.686;37.532;2023-10-19T15:03:06;98738.38;;;6.04;100.00
75312;BME280;63906;55.686;37.532;2023-10-19T15:08:10;98740.63;;;6.07;100.00
75312;BME280;63906;55.686;37.532;2023-10-19T15:13:10;98730.56;;;6.04;100.00
75312;BME280;63906;55.686;37.532;2023-10-19T15:18:11;98744.84;;;6.08;100.00
75312;BME280;63906;55.686;37.532;2023-10-19T15:23:12;98736.69;;;5.97;100.00
75312;BME280;63906;55.686;37.532;2023-10-19T15:28:13;98707.41;;;5.86;100.00
75312;BME280;63906;55.686;37.532;2023-10-19T15:33:14;98745.50;;;6.10;100.00
75312;BME280;63906;55.686;37.532;2023-10-19T15:38:15;98748.13;;;6.10;100.00
75312;BME280;63906;55.686;37.532;2023-10-19T15:43:15;98736.94;;;6.16;100.00
75312;BME280;63906;55.686;37.532;2023-10-19T15:48:16;98752.03;;;6.21;100.00
75312;BME280;63906;55.686;37.532;2023-10-19T15:53:16;98739.97;;;6.20;100.00
75312;BME280;63906;55.686;37.532;2023-10-19T15:58:17;98743.66;;;6.26;100.00
75312;BME280;63906;55.686;37.532;2023-10-19T16:03:21;98740.13;;;6.33;100.00
75312;BME280;63906;55.686;37.532;2023-10-19T16:08:22;98744.47;;;6.26;100.00
75312;BME280;63906;55.686;37.532;2023-10-19T16:13:22;98755.72;;;6.27;100.00
75312;BME280;63906;55.686;37.532;2023-10-19T16:18:23;98750.22;;;6.36;100.00
75312;BME280;63906;55.686;37.532;2023-10-19T16:23:23;98759.47;;;6.39;100.00
75312;BME280;63906;55.686;37.532;2023-10-19T16:28:24;98745.44;;;6.40;100.00
75312;BME280;63906;55.686;37.532;2023-10-19T16:33:24;98740.56;;;6.37;100.00
75312;BME280;63906;55.686;37.532;2023-10-19T16:38:25;98740.63;;;6.43;100.00
75312;BME280;63906;55.686;37.532;2023-10-19T16:43:26;98741.34;;;6.52;100.00
75312;BME280;63906;55.686;37.532;2023-10-19T16:48:27;98716.69;;;6.40;100.00
75312;BME280;63906;55.686;37.532;2023-10-19T16:53:28;98738.97;;;6.57;100.00
75312;BME280;63906;55.686;37.532;2023-10-19T16:58:29;98745.25;;;6.63;100.00
75312;BME280;63906;55.686;37.532;2023-10-19T17:03:29;98747.56;;;6.51;100.00
75312;BME280;63906;55.686;37.532;2023-10-19T17:08:30;98745.66;;;6.60;100.00
75312;BME280;63906;55.686;37.532;2023-10-19T17:13:31;98748.38;;;6.52;100.00
75312;BME280;63906;55.686;37.532;2023-10-19T17:18:32;98749.47;;;6.42;100.00
75312;BME280;63906;55.686;37.532;2023-10-19T17:23:34;98717.16;;;6.29;100.00
75312;BME280;63906;55.686;37.532;2023-10-19T17:28:35;98716.44;;;6.20;100.00
75312;BME280;63906;55.686;37.532;2023-10-19T17:33:37;98761.56;;;6.43;100.00
75312;BME280;63906;55.686;37.532;2023-10-19T17:38:38;98744.19;;;6.21;100.00
75312;BME280;63906;55.686;37.532;2023-10-19T17:43:39;98748.81;;;6.19;100.00
75312;BME280;63906;55.686;37.532;2023-10-19T17:48:40;98760.59;;;6.30;100.00
75312;BME280;63906;55.686;37.532;2023-10-19T17:53:43;98739.34;;;6.18;100.00
75312;BME280;63906;55.686;37.532;2023-10-19T17:58:44;98739.81;;;6.07;100.00
75312;BME280;63906;55.686;37.532;2023-10-19T18:03:45;98758.91;;;6.22;100.00
75312;BME280;63906;55.686;37.532;2023-10-19T18:08:45;98765.03;;;6.29;100.00
75312;BME280;63906;55.686;37.532;2023-10-19T18:13:46;98771.09;;;6.15;100.00
75312;BME280;63906;55.686;37.532;2023-10-19T18:18:46;98785.31;;;6.12;100.00
75312;BME280;63906;55.686;37.532;2023-10-19T18:23:50;98766.03;;;6.13;100.00
75312;BME280;63906;55.686;37.532;2023-10-19T18:28:51;98774.06;;;6.12;100.00
75312;BME280;63906;55.686;37.532;2023-10-19T18:33:52;98769.38;;;6.07;100.00
75312;BME280;63906;55.686;37.532;2023-10-19T18:38:52;98783.69;;;6.11;100.00
75312;BME280;63906;55.686;37.532;2023-10-19T18:43:53;98794.50;;;6.23;100.00
75312;BME280;63906;55.686;37.532;2023-10-19T18:48:54;98778.09;;;6.14;100.00
75312;BME280;63906;55.686;37.532;2023-10-19T18:53:55;98807.19;;;6.26;100.00
75312;BME280;63906;55.686;37.532;2023-10-19T18:58:56;98804.56;;;6.26;100.00
75312;BME280;63906;55.686;37.532;2023-10-19T19:03:57;98804.31;;;6.21;100.00
75312;BME280;63906;55.686;37.532;2023-10-19T19:08:57;98812.75;;;6.38;100.00
75312;BME280;63906;55.686;37.532;2023-10-19T19:13:58;98801.88;;;6.19;100.00
75312;BME280;63906;55.686;37.532;2023-10-19T19:18:58;98810.28;;;6.15;100.00
75312;BME280;63906;55.686;37.532;2023-10-19T19:23:59;98813.88;;;6.29;100.00
75312;BME280;63906;55.686;37.532;2023-10-19T19:29:00;98769.09;;;6.02;100.00
75312;BME280;63906;55.686;37.532;2023-10-19T19:34:01;98806.75;;;6.08;100.00
75312;BME280;63906;55.686;37.532;2023-10-19T19:39:03;98810.91;;;6.17;100.00
75312;BME280;63906;55.686;37.532;2023-10-19T19:44:03;98813.13;;;6.20;100.00
75312;BME280;63906;55.686;37.532;2023-10-19T19:49:04;98821.69;;;6.14;100.00
75312;BME280;63906;55.686;37.532;2023-10-19T19:54:04;98813.59;;;6.24;100.00
75312;BME280;63906;55.686;37.532;2023-10-19T19:59:05;98812.13;;;6.21;100.00
75312;BME280;63906;55.686;37.532;2023-10-19T20:04:05;98818.38;;;6.20;100.00
75312;BME280;63906;55.686;37.532;2023-10-19T20:09:06;98823.84;;;6.25;100.00
75312;BME280;63906;55.686;37.532;2023-10-19T20:14:11;98825.13;;;6.14;100.00
75312;BME280;63906;55.686;37.532;2023-10-19T20:19:11;98814.03;;;6.27;100.00
75312;BME280;63906;55.686;37.532;2023-10-19T20:24:13;98817.63;;;6.26;100.00
75312;BME280;63906;55.686;37.532;2023-10-19T20:29:14;98826.38;;;6.33;100.00
75312;BME280;63906;55.686;37.532;2023-10-19T20:34:14;98824.47;;;6.27;100.00
75312;BME280;63906;55.686;37.532;2023-10-19T20:39:15;98778.09;;;6.00;100.00
75312;BME280;63906;55.686;37.532;2023-10-19T20:44:15;98819.00;;;6.22;100.00
75312;BME280;63906;55.686;37.532;2023-10-19T20:49:16;98839.34;;;6.27;100.00
75312;BME280;63906;55.686;37.532;2023-10-19T20:54:17;98829.91;;;6.26;100.00
75312;BME280;63906;55.686;37.532;2023-10-19T20:59:18;98804.41;;;6.13;100.00
75312;BME280;63906;55.686;37.532;2023-10-19T21:04:20;98828.56;;;6.30;100.00
75312;BME280;63906;55.686;37.532;2023-10-19T21:09:21;98830.63;;;6.34;100.00
75312;BME280;63906;55.686;37.532;2023-10-19T21:14:22;98835.31;;;6.24;100.00
75312;BME280;63906;55.686;37.532;2023-10-19T21:19:22;98841.25;;;6.18;100.00
75312;BME280;63906;55.686;37.532;2023-10-19T21:24:23;98843.16;;;6.24;100.00
75312;BME280;63906;55.686;37.532;2023-10-19T21:29:25;98812.59;;;5.95;100.00
75312;BME280;63906;55.686;37.532;2023-10-19T21:34:25;98820.91;;;5.99;100.00
75312;BME280;63906;55.686;37.532;2023-10-19T21:39:27;98861.78;;;6.21;100.00
75312;BME280;63906;55.686;37.532;2023-10-19T21:44:28;98861.06;;;6.27;100.00
75312;BME280;63906;55.686;37.532;2023-10-19T21:49:28;98871.91;;;6.24;100.00
75312;BME280;63906;55.686;37.532;2023-10-19T21:54:28;98861.88;;;6.13;100.00
75312;BME280;63906;55.686;37.532;2023-10-19T21:59:29;98860.25;;;6.12;100.00
75312;BME280;63906;55.686;37.532;2023-10-19T22:04:30;98862.34;;;6.16;100.00
75312;BME280;63906;55.686;37.532;2023-10-19T22:09:31;98829.34;;;6.01;100.00
75312;BME280;63906;55.686;37.532;2023-10-19T22:14:32;98861.53;;;6.16;100.00
75312;BME280;63906;55.686;37.532;2023-10-19T22:19:33;98870.47;;;6.22;100.00
75312;BME280;63906;55.686;37.532;2023-10-19T22:24:34;98838.47;;;6.19;100.00
75312;BME280;63906;55.686;37.532;2023-10-19T22:29:34;98866.41;;;6.34;100.00
75312;BME280;63906;55.686;37.532;2023-10-19T22:34:35;98864.34;;;6.29;100.00
75312;BME280;63906;55.686;37.532;2023-10-19T22:39:36;98869.56;;;6.29;100.00
75312;BME280;63906;55.686;37.532;2023-10-19T22:44:37;98866.75;;;6.31;100.00
75312;BME280;63906;55.686;37.532;2023-10-19T22:49:38;98882.59;;;6.44;100.00
75312;BME280;63906;55.686;37.532;2023-10-19T22:54:39;98835.31;;;6.24;100.00
75312;BME280;63906;55.686;37.532;2023-10-19T22:59:39;98878.28;;;6.36;100.00
75312;BME280;63906;55.686;37.532;2023-10-19T23:04:40;98881.63;;;6.30;100.00
75312;BME280;63906;55.686;37.532;2023-10-19T23:09:41;98884.44;;;6.29;100.00
75312;BME280;63906;55.686;37.532;2023-10-19T23:14:41;98890.97;;;6.39;100.00
75312;BME280;63906;55.686;37.532;2023-10-19T23:19:45;98890.09;;;6.32;100.00
75312;BME280;63906;55.686;37.532;2023-10-19T23:24:48;98872.44;;;6.34;100.00
75312;BME280;63906;55.686;37.532;2023-10-19T23:29:56;98877.19;;;6.45;100.00
75312;BME280;63906;55.686;37.532;2023-10-19T23:34:57;98884.50;;;6.35;100.00
75312;BME280;63906;55.686;37.532;2023-10-19T23:39:58;98855.75;;;6.20;100.00
75312;BME280;63906;55.686;37.532;2023-10-19T23:44:58;98874.78;;;6.29;100.00
75312;BME280;63906;55.686;37.532;2023-10-19T23:49:59;98882.44;;;6.31;100.00
75312;BME280;63906;55.686;37.532;2023-10-19T23:55:00;98874.78;;;6.29;100.00
